createdAt,value
2023-03-29T00:03:07.826Z,3.91
2023-03-29T00:05:07.411Z,4.01
2023-03-29T00:07:07.322Z,4.01
2023-03-29T00:08:07.266Z,3.87
2023-03-29T00:12:07.147Z,3.81
2023-03-29T00:13:07.075Z,3.93
2023-03-29T00:16:06.986Z,3.90
2023-03-29T00:17:07.028Z,3.85
2023-03-29T00:21:06.874Z,3.81
2023-03-29T00:23:06.743Z,3.84
2023-03-29T00:25:06.657Z,3.86
2023-03-29T00:27:06.591Z,3.83
2023-03-29T00:28:06.576Z,3.74
2023-03-29T00:31:06.512Z,3.78
2023-03-29T00:34:06.357Z,3.74
2023-03-29T00:35:06.376Z,3.85
2023-03-29T00:37:06.260Z,3.72
2023-03-29T00:39:06.213Z,3.71
2023-03-29T00:40:06.156Z,3.74
2023-03-29T00:41:06.589Z,3.67
2023-03-29T00:44:06.018Z,3.61
2023-03-29T00:46:05.955Z,3.67
2023-03-29T00:47:05.892Z,3.60
2023-03-29T00:49:05.839Z,3.66
2023-03-29T00:51:07.025Z,3.56
2023-03-29T00:55:05.594Z,3.63
2023-03-29T00:56:05.568Z,3.64
2023-03-29T00:59:05.468Z,3.67
2023-03-29T01:00:05.430Z,3.65
2023-03-29T01:01:05.397Z,3.55
2023-03-29T01:02:05.421Z,3.57
2023-03-29T01:06:05.197Z,3.52
2023-03-29T01:09:05.080Z,3.54
2023-03-29T01:11:05.046Z,3.52
2023-03-29T01:12:04.933Z,3.53
2023-03-29T01:15:04.813Z,3.52
2023-03-29T01:17:04.757Z,3.50
2023-03-29T01:20:04.622Z,3.47
2023-03-29T01:21:04.608Z,3.48
2023-03-29T01:23:04.508Z,3.44
2023-03-29T01:26:04.379Z,3.40
2023-03-29T01:27:04.361Z,3.43
2023-03-29T01:28:04.290Z,3.42
2023-03-29T01:32:04.224Z,3.31
2023-03-29T01:33:04.156Z,3.45
2023-03-29T01:36:04.044Z,3.34
2023-03-29T01:37:03.938Z,3.32
2023-03-29T01:41:04.121Z,3.30
2023-03-29T01:42:03.796Z,3.30
2023-03-29T01:43:03.710Z,3.30
2023-03-29T01:48:03.550Z,3.25
2023-03-29T01:51:03.594Z,3.35
2023-03-29T01:53:03.343Z,3.26
2023-03-29T01:54:03.260Z,3.24
2023-03-29T01:58:03.100Z,3.25
2023-03-29T01:59:03.062Z,3.28
2023-03-29T02:02:02.938Z,3.26
2023-03-29T02:03:02.956Z,3.27
2023-03-29T02:04:02.846Z,3.23
2023-03-29T02:08:02.707Z,3.18
2023-03-29T02:10:02.624Z,3.20
2023-03-29T02:12:02.564Z,3.17
2023-03-29T02:13:02.531Z,3.15
2023-03-29T02:15:02.467Z,3.15
2023-03-29T02:19:02.325Z,3.18
2023-03-29T02:21:02.516Z,3.14
2023-03-29T02:23:02.184Z,3.04
2023-03-29T02:27:02.044Z,3.11
2023-03-29T02:29:01.979Z,3.08
2023-03-29T02:30:01.961Z,3.12
2023-03-29T02:31:02.123Z,3.03
2023-03-29T02:35:01.739Z,2.98
2023-03-29T02:38:01.615Z,3.00
2023-03-29T02:39:01.584Z,3.03
2023-03-29T02:41:01.720Z,3.04
2023-03-29T02:45:01.367Z,3.05
2023-03-29T02:46:01.324Z,3.00
2023-03-29T02:49:01.221Z,3.05
2023-03-29T02:52:01.128Z,3.01
2023-03-29T02:54:01.065Z,3.01
2023-03-29T02:55:01.027Z,2.99
2023-03-29T02:58:00.945Z,3.09
2023-03-29T03:01:01.156Z,2.94
2023-03-29T03:02:00.910Z,2.99
2023-03-29T03:05:00.686Z,2.90
2023-03-29T03:09:00.536Z,2.86
2023-03-29T03:10:00.493Z,2.87
2023-03-29T03:16:00.298Z,2.83
2023-03-29T03:17:02.401Z,2.87
2023-03-29T03:20:00.138Z,2.85
2023-03-29T03:22:59.991Z,2.95
2023-03-29T03:24:59.901Z,2.79
2023-03-29T03:28:59.732Z,2.81
2023-03-29T03:32:59.587Z,2.85
2023-03-29T03:35:59.496Z,2.95
2023-03-29T03:37:59.388Z,2.82
2023-03-29T03:41:59.311Z,2.85
2023-03-29T03:42:59.256Z,2.78
2023-03-29T03:46:59.064Z,2.83
2023-03-29T03:49:58.966Z,2.75
2023-03-29T03:53:58.824Z,2.71
2023-03-29T03:54:58.780Z,2.65
2023-03-29T03:55:58.753Z,2.79
2023-03-29T03:56:58.729Z,2.66
2023-03-29T04:02:58.531Z,2.66
2023-03-29T04:03:58.494Z,2.68
2023-03-29T04:04:58.406Z,2.71
2023-03-29T04:06:58.357Z,2.72
2023-03-29T04:11:58.158Z,2.71
2023-03-29T04:12:58.126Z,2.68
2023-03-29T04:13:58.094Z,2.61
2023-03-29T04:14:58.027Z,2.59
2023-03-29T04:20:57.856Z,2.60
2023-03-29T04:22:57.770Z,2.71
2023-03-29T04:24:57.696Z,2.61
2023-03-29T04:26:57.619Z,2.59
2023-03-29T04:29:57.533Z,2.65
2023-03-29T04:34:00.330Z,2.54
2023-03-29T04:34:57.377Z,2.57
2023-03-29T04:38:57.250Z,2.53
2023-03-29T04:39:57.223Z,2.59
2023-03-29T04:43:57.089Z,2.52
2023-03-29T04:45:57.823Z,2.63
2023-03-29T04:46:56.995Z,2.57
2023-03-29T04:48:56.931Z,2.53
2023-03-29T04:50:56.876Z,2.52
2023-03-29T04:53:56.777Z,2.53
2023-03-29T04:55:56.696Z,2.53
2023-03-29T04:59:56.586Z,2.44
2023-03-29T05:01:56.588Z,2.47
2023-03-29T05:05:56.377Z,2.36
2023-03-29T05:08:56.305Z,2.41
2023-03-29T05:11:56.181Z,2.21
2023-03-29T05:13:56.145Z,2.14
2023-03-29T05:19:55.953Z,2.06
2023-03-29T05:20:55.924Z,1.95
2023-03-29T05:23:55.828Z,1.83
2023-03-29T05:25:55.785Z,1.88
2023-03-29T05:26:55.758Z,1.82
2023-03-29T05:30:55.655Z,1.72
2023-03-29T05:33:55.497Z,1.77
2023-03-29T05:34:55.487Z,1.79
2023-03-29T05:36:55.388Z,2.03
2023-03-29T05:40:55.257Z,2.69
2023-03-29T05:41:55.847Z,2.83
2023-03-29T05:42:55.170Z,2.97
2023-03-29T05:43:55.294Z,3.16
2023-03-29T05:48:54.947Z,3.62
2023-03-29T05:50:54.861Z,3.65
2023-03-29T05:51:54.872Z,3.78
2023-03-29T05:56:54.698Z,4.83
2023-03-29T05:57:54.630Z,4.94
2023-03-29T05:58:55.155Z,5.15
2023-03-29T06:00:54.512Z,5.73
2023-03-29T06:01:54.495Z,6.01
2023-03-29T06:03:54.557Z,6.39
2023-03-29T06:07:54.264Z,7.12
2023-03-29T06:10:54.122Z,7.41
2023-03-29T06:11:54.071Z,7.58
2023-03-29T06:13:53.983Z,7.56
2023-03-29T06:14:53.931Z,7.55
2023-03-29T06:19:53.735Z,8.07
2023-03-29T06:22:53.609Z,8.40
2023-03-29T06:23:53.573Z,9.19
2023-03-29T06:26:53.448Z,10.58
2023-03-29T06:29:53.324Z,10.99
2023-03-29T06:32:53.212Z,11.32
2023-03-29T06:33:53.155Z,11.61
2023-03-29T06:34:53.099Z,11.48
2023-03-29T06:37:52.956Z,11.26
2023-03-29T06:41:52.787Z,8.97
2023-03-29T06:42:52.779Z,9.64
2023-03-29T06:45:52.658Z,9.58
2023-03-29T06:46:52.701Z,9.47
2023-03-29T06:50:52.413Z,7.93
2023-03-29T06:51:52.406Z,7.67
2023-03-29T06:54:52.251Z,7.63
2023-03-29T06:55:52.310Z,7.66
2023-03-29T06:57:52.186Z,8.07
2023-03-29T06:58:52.089Z,8.55
2023-03-29T07:03:51.970Z,7.78
2023-03-29T07:04:51.896Z,7.48
2023-03-29T07:06:51.789Z,7.40
2023-03-29T07:07:51.750Z,7.12
2023-03-29T07:09:51.666Z,6.70
2023-03-29T07:11:51.582Z,5.19
2023-03-29T07:14:51.447Z,5.29
2023-03-29T07:17:51.370Z,4.88
2023-03-29T07:20:51.221Z,4.50
2023-03-29T07:21:51.186Z,4.53
2023-03-29T07:22:51.173Z,4.29
2023-03-29T07:25:51.064Z,3.81
2023-03-29T07:29:50.992Z,3.25
2023-03-29T07:31:50.856Z,3.08
2023-03-29T07:33:50.819Z,2.88
2023-03-29T07:35:50.809Z,3.02
2023-03-29T07:38:50.605Z,3.60
2023-03-29T07:40:50.541Z,3.63
2023-03-29T07:41:50.558Z,3.56
2023-03-29T07:42:50.497Z,3.66
2023-03-29T07:44:50.441Z,3.70
2023-03-29T07:45:50.473Z,3.95
2023-03-29T07:50:50.203Z,3.99
2023-03-29T07:52:50.139Z,3.79
2023-03-29T07:53:50.109Z,3.79
2023-03-29T07:54:50.099Z,3.58
2023-03-29T07:56:50.012Z,4.73
2023-03-29T07:58:49.910Z,3.81
2023-03-29T07:59:53.401Z,3.96
2023-03-29T08:03:49.799Z,4.15
2023-03-29T08:05:49.900Z,3.83
2023-03-29T08:06:49.645Z,3.42
2023-03-29T08:07:49.686Z,3.62
2023-03-29T08:08:49.628Z,3.61
2023-03-29T08:13:49.469Z,0.56
2023-03-29T08:14:49.364Z,0.46
2023-03-29T08:15:49.354Z,0.43
2023-03-29T08:16:49.918Z,0.43
2023-03-29T08:18:49.335Z,0.50
2023-03-29T08:21:49.205Z,0.62
2023-03-29T08:22:49.379Z,0.64
2023-03-29T08:25:49.109Z,0.50
2023-03-29T08:27:49.066Z,0.56
2023-03-29T08:28:49.053Z,0.50
2023-03-29T08:32:51.056Z,1.63
2023-03-29T08:34:48.903Z,0.54
2023-03-29T08:36:49.397Z,0.34
2023-03-29T08:37:48.901Z,0.34
2023-03-29T08:39:48.870Z,0.34
2023-03-29T08:41:48.850Z,0.36
2023-03-29T08:42:48.967Z,0.42
2023-03-29T08:46:48.941Z,0.67
2023-03-29T08:47:48.974Z,1.68
2023-03-29T08:49:48.911Z,2.32
2023-03-29T08:53:48.869Z,2.46
2023-03-29T08:56:48.949Z,3.02
2023-03-29T08:57:48.844Z,4.26
2023-03-29T09:00:48.791Z,5.43
2023-03-29T09:02:49.251Z,3.82
2023-03-29T09:05:48.724Z,2.44
2023-03-29T09:06:48.728Z,2.09
2023-03-29T09:07:48.871Z,1.83
2023-03-29T09:11:48.638Z,1.47
2023-03-29T09:14:48.609Z,1.47
2023-03-29T09:15:48.663Z,1.49
2023-03-29T09:16:48.576Z,1.42
2023-03-29T09:19:48.547Z,1.33
2023-03-29T09:20:48.535Z,1.13
2023-03-29T09:21:48.511Z,1.16
2023-03-29T09:22:48.485Z,1.11
2023-03-29T09:23:48.526Z,1.10
2023-03-29T09:27:48.421Z,1.22
2023-03-29T09:29:48.370Z,1.23
2023-03-29T09:32:48.380Z,0.97
2023-03-29T09:34:48.293Z,0.97
2023-03-29T09:40:48.289Z,2.48
2023-03-29T09:41:48.241Z,7.79
2023-03-29T09:42:48.303Z,12.86
2023-03-29T09:43:48.189Z,18.95
2023-03-29T09:47:48.359Z,32.19
2023-03-29T09:50:48.191Z,56.46
2023-03-29T09:51:48.015Z,58.65
2023-03-29T09:52:47.986Z,61.33
2023-03-29T09:53:47.953Z,64.88
2023-03-29T09:54:48.094Z,67.18
2023-03-29T09:55:49.735Z,71.68
2023-03-29T10:00:47.831Z,66.67
2023-03-29T10:01:47.747Z,53.50
2023-03-29T10:02:47.713Z,44.83
2023-03-29T10:03:47.698Z,54.43
2023-03-29T10:07:47.551Z,54.29
2023-03-29T10:10:47.474Z,74.21
2023-03-29T10:11:47.573Z,81.59
2023-03-29T10:12:47.592Z,82.11
2023-03-29T10:13:47.373Z,91.41
2023-03-29T10:15:47.335Z,89.70
2023-03-29T10:16:47.382Z,92.96
2023-03-29T10:20:47.198Z,94.73
2023-03-29T10:21:47.957Z,86.18
2023-03-29T10:23:47.144Z,67.66
2023-03-29T10:26:47.116Z,57.35
2023-03-29T10:27:47.004Z,42.10
2023-03-29T10:30:46.908Z,8.62
2023-03-29T10:31:47.574Z,14.16
2023-03-29T10:33:46.821Z,24.20
2023-03-29T10:35:46.836Z,35.14
2023-03-29T10:36:46.863Z,35.05
2023-03-29T10:37:46.891Z,35.14
2023-03-29T10:39:47.658Z,35.25
2023-03-29T10:40:46.616Z,26.91
2023-03-29T10:46:46.461Z,9.21
2023-03-29T10:47:46.457Z,9.28
2023-03-29T10:48:46.400Z,8.14
2023-03-29T10:49:46.968Z,12.59
2023-03-29T10:50:46.344Z,15.63
2023-03-29T10:51:46.317Z,18.35
2023-03-29T10:55:46.188Z,28.30
2023-03-29T10:58:46.179Z,37.20
2023-03-29T10:59:46.116Z,37.29
2023-03-29T11:00:46.933Z,37.79
2023-03-29T11:02:46.089Z,45.03
2023-03-29T11:05:45.850Z,57.73
2023-03-29T11:08:45.786Z,68.36
2023-03-29T11:09:45.757Z,70.12
2023-03-29T11:10:45.973Z,75.00
2023-03-29T11:14:34.618Z,0.50
2023-03-29T11:16:34.648Z,0.50
2023-03-29T11:17:34.635Z,0.50
2023-03-29T11:18:34.591Z,0.50
2023-03-29T11:19:34.542Z,0.50
2023-03-29T11:20:34.550Z,0.50
2023-03-29T11:23:34.495Z,0.59
2023-03-29T11:25:34.502Z,0.41
2023-03-29T11:26:34.481Z,0.46
2023-03-29T11:27:34.451Z,0.61
2023-03-29T11:29:34.422Z,0.57
2023-03-29T11:30:34.454Z,0.84
2023-03-29T11:32:34.392Z,1.23
2023-03-29T11:33:34.389Z,1.46
2023-03-29T11:36:34.363Z,2.38
2023-03-29T11:38:34.268Z,2.39
2023-03-29T11:39:34.271Z,2.47
2023-03-29T11:40:34.264Z,2.60
2023-03-29T11:42:34.207Z,2.48
2023-03-29T11:44:34.199Z,2.83
2023-03-29T11:45:34.239Z,3.09
2023-03-29T11:48:34.110Z,2.94
2023-03-29T11:51:34.089Z,2.76
2023-03-29T11:53:34.054Z,2.70
2023-03-29T11:54:34.098Z,2.71
2023-03-29T11:55:34.067Z,2.71
2023-03-29T12:01:33.940Z,2.58
2023-03-29T12:02:33.975Z,2.49
2023-03-29T12:03:34.011Z,2.49
2023-03-29T12:05:33.846Z,2.45
2023-03-29T12:06:33.819Z,2.45
2023-03-29T12:07:33.801Z,2.46
2023-03-29T12:08:34.076Z,2.42
2023-03-29T12:13:33.709Z,2.20
2023-03-29T12:14:33.695Z,2.19
2023-03-29T12:15:33.718Z,2.22
2023-03-29T12:16:33.681Z,2.14
2023-03-29T12:20:33.695Z,2.12
2023-03-29T12:21:33.865Z,2.06
2023-03-29T12:24:33.468Z,2.06
2023-03-29T12:26:33.440Z,1.99
2023-03-29T12:27:33.679Z,2.03
2023-03-29T12:28:33.417Z,2.01
2023-03-29T12:31:33.414Z,1.97
2023-03-29T12:34:33.306Z,1.96
2023-03-29T12:36:33.252Z,1.98
2023-03-29T12:37:33.284Z,1.87
2023-03-29T12:38:33.214Z,1.94
2023-03-29T12:40:33.157Z,1.94
2023-03-29T12:45:54.322Z,0.50
2023-03-29T12:46:54.306Z,0.50
2023-03-29T12:47:54.306Z,0.50
2023-03-29T12:48:54.258Z,0.50
2023-03-29T12:49:54.218Z,0.50
2023-03-29T12:50:54.258Z,0.50
2023-03-29T12:51:54.355Z,0.51
2023-03-29T12:52:54.189Z,0.51
2023-03-29T12:53:54.154Z,0.50
2023-03-29T12:54:54.188Z,0.50
2023-03-29T12:55:54.092Z,0.51
2023-03-29T12:56:54.128Z,0.51
2023-03-29T12:57:54.060Z,0.51
2023-03-29T12:58:54.030Z,0.51
2023-03-29T12:59:54.032Z,0.51
2023-03-29T13:00:54.108Z,0.52
2023-03-29T13:01:54.030Z,0.51
2023-03-29T13:02:53.989Z,0.51
2023-03-29T13:03:53.937Z,0.50
2023-03-29T13:04:54.100Z,0.50
2023-03-29T13:05:53.866Z,0.51
2023-03-29T13:06:54.313Z,0.50
2023-03-29T13:07:53.850Z,0.50
2023-03-29T13:08:53.835Z,0.52
2023-03-29T13:09:53.780Z,0.51
2023-03-29T13:10:53.941Z,0.51
2023-03-29T13:11:53.788Z,0.52
2023-03-29T13:12:53.746Z,0.53
2023-03-29T13:13:53.710Z,0.53
2023-03-29T13:14:53.750Z,0.54
2023-03-29T13:15:53.729Z,0.57
2023-03-29T13:16:53.683Z,0.60
2023-03-29T13:17:53.689Z,0.60
2023-03-29T13:18:53.653Z,0.61
2023-03-29T13:19:53.653Z,0.61
2023-03-29T13:20:53.732Z,0.61
2023-03-29T13:21:53.682Z,0.59
2023-03-29T13:22:53.724Z,0.59
2023-03-29T13:23:53.757Z,0.57
2023-03-29T13:24:53.812Z,0.55
2023-03-29T13:25:53.848Z,0.54
2023-03-29T13:26:53.902Z,0.54
2023-03-29T13:27:53.976Z,0.52
2023-03-29T13:28:55.432Z,0.53
2023-03-29T13:29:54.164Z,0.51
2023-03-29T13:30:54.297Z,0.52
2023-03-29T13:31:54.240Z,0.50
2023-03-29T13:32:55.510Z,0.52
2023-03-29T13:33:54.862Z,0.50
2023-03-29T13:34:54.448Z,0.51
2023-03-29T13:35:54.439Z,0.50
2023-03-29T13:36:54.429Z,0.50
2023-03-29T13:37:54.428Z,0.50
2023-03-29T13:38:54.441Z,0.50
2023-03-29T13:39:54.376Z,0.50
2023-03-29T13:40:54.418Z,0.49
2023-03-29T13:41:54.348Z,0.51
2023-03-29T13:42:54.335Z,0.51
2023-03-29T13:43:54.321Z,0.50
2023-03-29T13:44:54.357Z,0.50
2023-03-29T13:45:54.379Z,0.51
2023-03-29T13:46:54.578Z,0.51
2023-03-29T13:48:04.655Z,0.51
2023-03-29T13:48:55.354Z,0.51
2023-03-29T13:49:54.314Z,0.51
2023-03-29T13:50:54.981Z,0.49
2023-03-29T13:51:54.286Z,0.48
2023-03-29T13:52:54.322Z,0.50
2023-03-29T13:53:54.242Z,0.49
2023-03-29T13:54:54.249Z,0.48
2023-03-29T13:55:54.184Z,0.48
2023-03-29T13:56:54.215Z,0.47
2023-03-29T13:57:54.277Z,0.50
2023-03-29T13:58:54.253Z,0.50
2023-03-29T13:59:54.153Z,0.51
2023-03-29T14:00:54.149Z,0.50
2023-03-29T14:01:54.184Z,0.51
2023-03-29T14:02:54.213Z,0.52
2023-03-29T14:03:54.184Z,0.52
2023-03-29T14:04:54.148Z,0.52
2023-03-29T14:05:54.169Z,0.50
2023-03-29T14:06:54.206Z,0.50
2023-03-29T14:07:54.214Z,0.51
2023-03-29T14:08:54.246Z,0.51
2023-03-29T14:09:54.314Z,0.51
2023-03-29T14:10:54.352Z,0.50
2023-03-29T14:11:54.383Z,0.52
2023-03-29T14:12:54.385Z,0.50
2023-03-29T14:13:54.373Z,0.50
2023-03-29T14:14:59.092Z,0.51
2023-03-29T14:15:55.372Z,0.51
2023-03-29T14:16:54.384Z,0.50
2023-03-29T14:17:54.421Z,0.51
2023-03-29T14:18:54.335Z,0.50
2023-03-29T14:19:54.329Z,0.50
2023-03-29T14:20:54.298Z,0.52
2023-03-29T14:21:54.299Z,0.51
2023-03-29T14:22:54.270Z,0.51
2023-03-29T14:23:54.245Z,0.50
2023-03-29T14:24:54.239Z,0.50
2023-03-29T14:25:54.235Z,0.50
2023-03-29T14:26:54.222Z,0.51
2023-03-29T14:27:54.237Z,0.51
2023-03-29T14:28:54.239Z,0.51
2023-03-29T14:29:54.257Z,0.51
2023-03-29T14:30:54.312Z,0.52
2023-03-29T14:31:54.310Z,0.52
2023-03-29T14:32:54.385Z,0.52
2023-03-29T14:33:54.328Z,0.51
2023-03-29T14:34:54.348Z,0.51
2023-03-29T14:35:54.490Z,0.51
2023-03-29T14:36:54.540Z,0.52
2023-03-29T14:37:54.438Z,0.52
2023-03-29T14:38:54.463Z,0.50
2023-03-29T14:39:54.532Z,0.52
2023-03-29T14:40:54.527Z,0.51
2023-03-29T14:41:54.552Z,0.50
2023-03-29T14:42:54.573Z,0.51
2023-03-29T14:43:54.571Z,0.51
2023-03-29T14:44:54.588Z,0.53
2023-03-29T14:45:54.656Z,0.51
2023-03-29T14:46:54.662Z,0.52
2023-03-29T14:47:54.648Z,0.52
2023-03-29T14:48:54.652Z,0.52
2023-03-29T14:49:54.607Z,0.52
2023-03-29T14:50:54.656Z,0.52
2023-03-29T14:51:54.621Z,0.51
2023-03-29T14:52:54.621Z,0.51
2023-03-29T14:53:54.616Z,0.50
2023-03-29T14:54:54.615Z,0.54
2023-03-29T14:55:54.686Z,0.54
2023-03-29T14:56:54.819Z,0.51
2023-03-29T14:57:54.696Z,0.52
2023-03-29T14:58:54.688Z,0.51
2023-03-29T14:59:54.729Z,0.53
2023-03-29T15:00:54.688Z,0.53
2023-03-29T15:01:54.766Z,0.53
2023-03-29T15:02:54.798Z,0.54
2023-03-29T15:03:55.224Z,0.52
2023-03-29T15:04:54.657Z,0.51
2023-03-29T15:05:54.687Z,0.52
2023-03-29T15:06:54.673Z,0.53
2023-03-29T15:07:54.670Z,0.54
2023-03-29T15:09:04.206Z,0.52
2023-03-29T15:09:55.664Z,0.52
2023-03-29T15:10:54.647Z,0.52
2023-03-29T15:11:54.608Z,0.53
2023-03-29T15:12:54.633Z,0.52
2023-03-29T15:13:54.573Z,0.52
2023-03-29T15:14:54.606Z,0.53
2023-03-29T15:15:54.607Z,0.54
2023-03-29T15:16:54.520Z,0.51
2023-03-29T15:17:54.546Z,0.52
2023-03-29T15:18:54.509Z,0.52
2023-03-29T15:19:54.482Z,0.52
2023-03-29T15:20:54.456Z,0.53
2023-03-29T15:21:54.409Z,0.52
2023-03-29T15:22:54.396Z,0.52
2023-03-29T15:23:54.376Z,0.54
2023-03-29T15:24:54.359Z,0.55
2023-03-29T15:25:54.342Z,0.55
2023-03-29T15:26:54.310Z,0.53
2023-03-29T15:27:54.284Z,0.55
2023-03-29T15:28:54.263Z,0.54
2023-03-29T15:29:54.226Z,0.55
2023-03-29T15:31:04.656Z,0.54
2023-03-29T15:31:55.282Z,0.54
2023-03-29T15:32:54.266Z,0.54
2023-03-29T15:33:54.176Z,0.55
2023-03-29T15:34:54.129Z,0.54
2023-03-29T15:35:54.173Z,0.55
2023-03-29T15:36:54.086Z,0.55
2023-03-29T15:37:54.030Z,0.56
2023-03-29T15:38:54.010Z,0.55
2023-03-29T15:39:53.995Z,0.54
2023-03-29T15:40:54.062Z,0.55
2023-03-29T15:41:53.971Z,0.54
2023-03-29T15:42:53.931Z,0.55
2023-03-29T15:43:53.909Z,0.55
2023-03-29T15:44:53.862Z,0.55
2023-03-29T15:45:53.862Z,0.54
2023-03-29T15:46:53.903Z,0.56
2023-03-29T15:47:53.834Z,0.55
2023-03-29T15:48:53.790Z,0.55
2023-03-29T15:49:53.755Z,0.57
2023-03-29T15:50:53.730Z,0.57
2023-03-29T15:51:53.716Z,0.57
2023-03-29T15:52:54.830Z,0.57
2023-03-29T15:53:53.657Z,0.57
2023-03-29T15:54:53.630Z,0.57
2023-03-29T15:55:53.612Z,0.57
2023-03-29T15:56:53.734Z,0.58
2023-03-29T15:57:53.701Z,0.60
2023-03-29T15:58:53.517Z,0.60
2023-03-29T15:59:53.497Z,0.59
2023-03-29T16:00:53.490Z,0.60
2023-03-29T16:01:53.479Z,0.61
2023-03-29T16:02:53.425Z,0.63
2023-03-29T16:03:53.442Z,0.61
2023-03-29T16:04:53.355Z,0.61
2023-03-29T16:05:53.324Z,0.62
2023-03-29T16:06:53.309Z,0.63
2023-03-29T16:07:53.275Z,0.63
2023-03-29T16:08:54.949Z,0.62
2023-03-29T16:09:53.236Z,0.62
2023-03-29T16:10:53.214Z,0.62
2023-03-29T16:11:53.157Z,0.63
2023-03-29T16:12:53.126Z,0.64
2023-03-29T16:13:53.183Z,0.65
2023-03-29T16:14:53.076Z,0.67
2023-03-29T16:15:53.066Z,0.66
2023-03-29T16:16:53.096Z,0.65
2023-03-29T16:17:53.048Z,0.66
2023-03-29T16:18:52.976Z,0.66
2023-03-29T16:19:52.966Z,0.69
2023-03-29T16:20:52.906Z,0.67
2023-03-29T16:21:52.909Z,0.66
2023-03-29T16:22:52.886Z,0.67
2023-03-29T16:23:52.891Z,0.67
2023-03-29T16:24:52.838Z,0.68
2023-03-29T16:25:52.804Z,0.68
2023-03-29T16:26:54.759Z,0.67
2023-03-29T16:27:52.797Z,0.69
2023-03-29T16:28:52.732Z,0.68
2023-03-29T16:29:52.704Z,0.68
2023-03-29T16:30:52.684Z,0.69
2023-03-29T16:31:52.916Z,0.67
2023-03-29T16:32:52.725Z,0.68
2023-03-29T16:33:52.609Z,0.69
2023-03-29T16:34:52.607Z,0.69
2023-03-29T16:35:52.575Z,0.69
2023-03-29T16:36:52.586Z,0.68
2023-03-29T16:37:52.551Z,0.68
2023-03-29T16:38:52.519Z,0.69
2023-03-29T16:39:52.544Z,0.70
2023-03-29T16:40:52.450Z,0.70
2023-03-29T16:41:52.442Z,0.68
2023-03-29T16:42:52.392Z,0.69
2023-03-29T16:43:52.380Z,0.71
2023-03-29T16:44:52.362Z,0.70
2023-03-29T16:45:52.369Z,0.70
2023-03-29T16:46:52.312Z,0.71
2023-03-29T16:47:52.354Z,0.70
2023-03-29T16:48:52.264Z,0.69
2023-03-29T16:49:52.254Z,0.68
2023-03-29T16:50:52.286Z,0.72
2023-03-29T16:51:52.214Z,0.71
2023-03-29T16:52:52.190Z,0.69
2023-03-29T16:53:52.166Z,0.70
2023-03-29T16:54:52.160Z,0.71
2023-03-29T16:55:52.168Z,0.70
2023-03-29T16:56:52.144Z,0.69
2023-03-29T16:57:52.093Z,0.71
2023-03-29T16:58:52.089Z,0.71
2023-03-29T16:59:52.097Z,0.70
2023-03-29T17:00:52.063Z,0.70
2023-03-29T17:01:52.198Z,0.74
2023-03-29T17:02:52.019Z,0.73
2023-03-29T17:03:51.993Z,0.70
2023-03-29T17:04:52.013Z,0.71
2023-03-29T17:05:51.966Z,0.72
2023-03-29T17:06:51.908Z,0.72
2023-03-29T17:07:51.884Z,0.70
2023-03-29T17:08:51.860Z,0.70
2023-03-29T17:09:51.839Z,0.71
2023-03-29T17:10:51.824Z,0.72
2023-03-29T17:11:51.860Z,0.71
2023-03-29T17:12:51.784Z,0.73
2023-03-29T17:13:51.769Z,0.72
2023-03-29T17:14:51.743Z,0.73
2023-03-29T17:15:51.849Z,0.72
2023-03-29T17:16:51.715Z,0.71
2023-03-29T17:17:51.745Z,0.71
2023-03-29T17:18:51.720Z,0.70
2023-03-29T17:19:51.690Z,0.69
2023-03-29T17:20:51.653Z,0.70
2023-03-29T17:21:51.647Z,0.70
2023-03-29T17:22:51.614Z,0.70
2023-03-29T17:23:51.605Z,0.72
2023-03-29T17:24:51.596Z,0.69
2023-03-29T17:25:51.592Z,0.71
2023-03-29T17:26:51.556Z,0.69
2023-03-29T17:27:51.537Z,0.68
2023-03-29T17:28:51.510Z,0.69
2023-03-29T17:29:51.509Z,0.69
2023-03-29T17:30:51.497Z,0.72
2023-03-29T17:31:51.470Z,0.69
2023-03-29T17:32:51.468Z,0.72
2023-03-29T17:33:51.430Z,0.74
2023-03-29T17:34:51.410Z,0.69
2023-03-29T17:35:51.457Z,0.68
2023-03-29T17:36:51.367Z,0.68
2023-03-29T17:37:51.382Z,0.69
2023-03-29T17:38:51.343Z,0.67
2023-03-29T17:39:51.344Z,0.70
2023-03-29T17:40:51.316Z,0.68
2023-03-29T17:41:51.305Z,0.69
2023-03-29T17:42:51.274Z,0.66
2023-03-29T17:43:51.252Z,0.66
2023-03-29T17:44:51.227Z,0.66
2023-03-29T17:45:51.214Z,0.67
2023-03-29T17:46:51.214Z,0.67
2023-03-29T17:47:51.182Z,0.67
2023-03-29T17:48:51.149Z,0.68
2023-03-29T17:49:51.139Z,0.67
2023-03-29T17:50:51.084Z,0.68
2023-03-29T17:51:51.060Z,0.66
2023-03-29T17:52:51.044Z,0.66
2023-03-29T17:53:52.271Z,0.65
2023-03-29T17:54:50.988Z,0.65
2023-03-29T17:55:50.969Z,0.67
2023-03-29T17:56:51.016Z,0.66
2023-03-29T17:57:50.929Z,0.65
2023-03-29T17:58:50.902Z,0.65
2023-03-29T17:59:50.897Z,0.65
2023-03-29T18:00:50.904Z,0.67
2023-03-29T18:01:50.870Z,0.68
2023-03-29T18:02:50.902Z,0.68
2023-03-29T18:03:50.800Z,0.68
2023-03-29T18:04:50.829Z,0.68
2023-03-29T18:05:50.772Z,0.66
2023-03-29T18:06:50.743Z,0.67
2023-03-29T18:07:50.719Z,0.66
2023-03-29T18:08:50.687Z,0.66
2023-03-29T18:09:50.681Z,0.66
2023-03-29T18:10:50.640Z,0.68
2023-03-29T18:11:50.620Z,0.64
2023-03-29T18:12:50.592Z,0.64
2023-03-29T18:13:50.577Z,0.65
2023-03-29T18:14:50.580Z,0.65
2023-03-29T18:15:50.552Z,0.64
2023-03-29T18:16:50.636Z,0.67
2023-03-29T18:17:50.583Z,0.64
2023-03-29T18:18:50.910Z,0.63
2023-03-29T18:19:50.498Z,0.63
2023-03-29T18:20:50.509Z,0.63
2023-03-29T18:21:50.455Z,0.61
2023-03-29T18:22:50.455Z,0.63
2023-03-29T18:23:50.463Z,0.65
2023-03-29T18:24:50.486Z,0.61
2023-03-29T18:25:50.500Z,0.65
2023-03-29T18:26:50.503Z,0.65
2023-03-29T18:27:50.453Z,0.65
2023-03-29T18:28:50.440Z,0.62
2023-03-29T18:29:50.430Z,0.64
2023-03-29T18:30:50.406Z,0.59
2023-03-29T18:31:50.413Z,0.64
2023-03-29T18:32:50.397Z,0.62
2023-03-29T18:33:50.359Z,0.62
2023-03-29T18:34:50.333Z,0.63
2023-03-29T18:35:50.408Z,0.62
2023-03-29T18:36:50.300Z,0.62
2023-03-29T18:37:50.280Z,0.61
2023-03-29T18:38:50.269Z,0.62
2023-03-29T18:39:50.254Z,0.61
2023-03-29T18:40:50.243Z,0.61
2023-03-29T18:41:50.215Z,0.62
2023-03-29T18:42:50.228Z,0.62
2023-03-29T18:43:50.180Z,0.63
2023-03-29T18:44:50.233Z,0.63
2023-03-29T18:45:50.146Z,0.61
2023-03-29T18:46:50.112Z,0.60
2023-03-29T18:47:50.147Z,0.62
2023-03-29T18:48:50.072Z,0.62
2023-03-29T18:49:50.062Z,0.61
2023-03-29T18:50:50.036Z,0.59
2023-03-29T18:51:50.043Z,0.64
2023-03-29T18:52:50.002Z,0.64
2023-03-29T18:53:49.989Z,0.62
2023-03-29T18:54:49.992Z,0.59
2023-03-29T18:55:49.965Z,0.62
2023-03-29T18:56:49.977Z,0.60
2023-03-29T18:57:49.943Z,0.61
2023-03-29T18:58:49.896Z,0.58
2023-03-29T18:59:49.882Z,0.60
2023-03-29T19:00:49.873Z,0.59
2023-03-29T19:01:49.892Z,0.59
2023-03-29T19:02:49.947Z,0.63
2023-03-29T19:03:49.924Z,0.61
2023-03-29T19:04:49.870Z,0.56
2023-03-29T19:05:49.873Z,0.63
2023-03-29T19:06:49.891Z,0.62
2023-03-29T19:07:49.883Z,0.56
2023-03-29T19:08:49.889Z,0.58
2023-03-29T19:09:49.899Z,0.59
2023-03-29T19:10:49.918Z,0.59
2023-03-29T19:11:49.946Z,0.59
2023-03-29T19:12:49.965Z,0.60
2023-03-29T19:13:49.967Z,0.59
2023-03-29T19:14:49.987Z,0.56
2023-03-29T19:15:50.068Z,0.60
2023-03-29T19:16:49.995Z,0.60
2023-03-29T19:17:50.021Z,0.57
2023-03-29T19:18:49.940Z,0.58
2023-03-29T19:19:49.925Z,0.59
2023-03-29T19:20:49.909Z,0.57
2023-03-29T19:21:49.899Z,0.57
2023-03-29T19:22:49.881Z,0.60
2023-03-29T19:23:49.868Z,0.58
2023-03-29T19:24:49.869Z,0.59
2023-03-29T19:25:49.842Z,0.58
2023-03-29T19:26:49.809Z,0.58
2023-03-29T19:27:49.793Z,0.54
2023-03-29T19:28:49.783Z,0.57
2023-03-29T19:29:49.772Z,0.57
2023-03-29T19:30:49.785Z,0.57
2023-03-29T19:31:49.724Z,0.58
2023-03-29T19:32:49.738Z,0.58
2023-03-29T19:33:49.680Z,0.55
2023-03-29T19:34:49.666Z,0.54
2023-03-29T19:35:49.725Z,0.54
2023-03-29T19:36:49.630Z,0.55
2023-03-29T19:37:49.631Z,0.53
2023-03-29T19:38:49.615Z,0.55
2023-03-29T19:39:49.589Z,0.55
2023-03-29T19:40:49.572Z,0.53
2023-03-29T19:41:49.554Z,0.53
2023-03-29T19:42:49.533Z,0.54
2023-03-29T19:43:49.536Z,0.53
2023-03-29T19:44:49.506Z,0.56
2023-03-29T19:45:49.497Z,0.56
2023-03-29T19:46:49.518Z,0.55
2023-03-29T19:47:54.264Z,0.55
2023-03-29T19:48:50.475Z,0.54
2023-03-29T19:49:49.438Z,0.55
2023-03-29T19:50:49.448Z,0.54
2023-03-29T19:51:49.408Z,0.54
2023-03-29T19:52:49.395Z,0.53
2023-03-29T19:53:49.373Z,0.52
2023-03-29T19:54:49.369Z,0.57
2023-03-29T19:55:49.352Z,0.51
2023-03-29T19:56:51.942Z,0.51
2023-03-29T19:57:49.315Z,0.52
2023-03-29T19:58:49.299Z,0.51
2023-03-29T19:59:49.271Z,0.54
2023-03-29T20:00:49.260Z,0.52
2023-03-29T20:01:49.250Z,0.52
2023-03-29T20:02:49.325Z,0.52
2023-03-29T20:03:49.229Z,0.53
2023-03-29T20:04:49.187Z,0.52
2023-03-29T20:05:49.227Z,0.53
2023-03-29T20:06:49.178Z,0.50
2023-03-29T20:07:49.137Z,0.51